sensor_id;sensor_type;location;lat;lon;timestamp;temperature;humidity
13652;DHT22;6899;51.546;6.912;2022-10-26T00:00:07;8.40;99.90
13652;DHT22;6899;51.546;6.912;2022-10-26T00:02:34;8.40;99.90
13652;DHT22;6899;51.546;6.912;2022-10-26T00:05:01;8.50;99.90
13652;DHT22;6899;51.546;6.912;2022-10-26T00:07:28;8.50;99.90
13652;DHT22;6899;51.546;6.912;2022-10-26T00:09:55;8.50;99.90
13652;DHT22;6899;51.546;6.912;2022-10-26T00:12:21;8.50;99.90
13652;DHT22;6899;51.546;6.912;2022-10-26T00:14:50;8.60;99.90
13652;DHT22;6899;51.546;6.912;2022-10-26T00:17:16;8.50;99.90
13652;DHT22;6899;51.546;6.912;2022-10-26T00:19:43;8.50;99.90
13652;DHT22;6899;51.546;6.912;2022-10-26T00:22:10;8.60;99.90
13652;DHT22;6899;51.546;6.912;2022-10-26T00:24:37;8.60;99.90
13652;DHT22;6899;51.546;6.912;2022-10-26T00:27:04;8.60;99.90
13652;DHT22;6899;51.546;6.912;2022-10-26T00:29:31;8.70;99.90
13652;DHT22;6899;51.546;6.912;2022-10-26T00:31:59;8.70;99.90
13652;DHT22;6899;51.546;6.912;2022-10-26T00:34:26;8.70;99.90
13652;DHT22;6899;51.546;6.912;2022-10-26T00:36:53;8.80;99.90
13652;DHT22;6899;51.546;6.912;2022-10-26T00:39:20;8.90;99.90
13652;DHT22;6899;51.546;6.912;2022-10-26T00:41:46;8.80;99.90
13652;DHT22;6899;51.546;6.912;2022-10-26T00:47:25;9.00;99.90
13652;DHT22;6899;51.546;6.912;2022-10-26T00:49:56;8.90;99.90
13652;DHT22;6899;51.546;6.912;2022-10-26T00:52:24;9.00;99.90
13652;DHT22;6899;51.546;6.912;2022-10-26T00:54:51;9.10;99.90
13652;DHT22;6899;51.546;6.912;2022-10-26T00:57:19;9.20;99.90
13652;DHT22;6899;51.546;6.912;2022-10-26T00:59:47;9.20;99.90
13652;DHT22;6899;51.546;6.912;2022-10-26T01:02:16;9.30;99.90
13652;DHT22;6899;51.546;6.912;2022-10-26T01:04:45;9.30;99.90
13652;DHT22;6899;51.546;6.912;2022-10-26T01:07:12;9.30;99.90
13652;DHT22;6899;51.546;6.912;2022-10-26T01:09:41;9.30;99.90
13652;DHT22;6899;51.546;6.912;2022-10-26T01:12:07;9.40;99.90
13652;DHT22;6899;51.546;6.912;2022-10-26T01:14:34;9.40;99.90
13652;DHT22;6899;51.546;6.912;2022-10-26T01:17:06;9.50;99.90
13652;DHT22;6899;51.546;6.912;2022-10-26T01:20:07;9.50;99.90
13652;DHT22;6899;51.546;6.912;2022-10-26T01:22:44;9.50;99.90
13652;DHT22;6899;51.546;6.912;2022-10-26T01:25:26;9.50;99.90
13652;DHT22;6899;51.546;6.912;2022-10-26T01:28:00;9.60;99.90
13652;DHT22;6899;51.546;6.912;2022-10-26T01:30:34;9.50;99.90
13652;DHT22;6899;51.546;6.912;2022-10-26T01:33:28;9.60;99.90
13652;DHT22;6899;51.546;6.912;2022-10-26T01:36:05;9.60;99.90
13652;DHT22;6899;51.546;6.912;2022-10-26T01:38:41;9.50;99.90
13652;DHT22;6899;51.546;6.912;2022-10-26T01:41:12;9.60;99.90
13652;DHT22;6899;51.546;6.912;2022-10-26T01:43:44;9.60;99.90
13652;DHT22;6899;51.546;6.912;2022-10-26T01:46:14;9.70;99.90
13652;DHT22;6899;51.546;6.912;2022-10-26T01:48:43;9.70;99.90
13652;DHT22;6899;51.546;6.912;2022-10-26T01:51:12;9.70;99.90
13652;DHT22;6899;51.546;6.912;2022-10-26T01:53:43;9.70;99.90
13652;DHT22;6899;51.546;6.912;2022-10-26T01:56:14;9.70;99.90
13652;DHT22;6899;51.546;6.912;2022-10-26T02:04:52;9.50;99.90
13652;DHT22;6899;51.546;6.912;2022-10-26T02:07:29;9.50;99.90
13652;DHT22;6899;51.546;6.912;2022-10-26T02:10:02;9.50;99.90
13652;DHT22;6899;51.546;6.912;2022-10-26T02:12:39;9.60;99.90
13652;DHT22;6899;51.546;6.912;2022-10-26T02:15:11;9.60;99.90
13652;DHT22;6899;51.546;6.912;2022-10-26T02:17:46;9.50;99.90
13652;DHT22;6899;51.546;6.912;2022-10-26T02:20:18;9.60;99.90
13652;DHT22;6899;51.546;6.912;2022-10-26T02:22:48;9.60;99.90
13652;DHT22;6899;51.546;6.912;2022-10-26T02:25:18;9.60;99.90
13652;DHT22;6899;51.546;6.912;2022-10-26T02:27:50;9.60;99.90
13652;DHT22;6899;51.546;6.912;2022-10-26T02:30:19;9.60;99.90
13652;DHT22;6899;51.546;6.912;2022-10-26T02:32:50;9.70;99.90
13652;DHT22;6899;51.546;6.912;2022-10-26T02:35:21;9.70;99.90
13652;DHT22;6899;51.546;6.912;2022-10-26T02:37:51;9.60;99.90
13652;DHT22;6899;51.546;6.912;2022-10-26T02:40:21;9.60;99.90
13652;DHT22;6899;51.546;6.912;2022-10-26T02:42:51;9.50;99.90
13652;DHT22;6899;51.546;6.912;2022-10-26T02:45:21;9.50;99.90
13652;DHT22;6899;51.546;6.912;2022-10-26T02:47:52;9.50;99.90
13652;DHT22;6899;51.546;6.912;2022-10-26T02:50:25;9.50;99.90
13652;DHT22;6899;51.546;6.912;2022-10-26T02:53:00;9.70;99.90
13652;DHT22;6899;51.546;6.912;2022-10-26T02:55:31;9.80;99.90
13652;DHT22;6899;51.546;6.912;2022-10-26T02:58:04;9.80;99.90
13652;DHT22;6899;51.546;6.912;2022-10-26T03:00:32;9.90;99.90
13652;DHT22;6899;51.546;6.912;2022-10-26T03:03:00;10.00;99.90
13652;DHT22;6899;51.546;6.912;2022-10-26T03:05:29;10.00;99.90
13652;DHT22;6899;51.546;6.912;2022-10-26T03:07:58;10.10;99.90
13652;DHT22;6899;51.546;6.912;2022-10-26T03:10:25;10.20;99.90
13652;DHT22;6899;51.546;6.912;2022-10-26T03:12:52;10.20;99.90
13652;DHT22;6899;51.546;6.912;2022-10-26T03:15:19;10.20;99.90
13652;DHT22;6899;51.546;6.912;2022-10-26T03:17:46;10.20;99.90
13652;DHT22;6899;51.546;6.912;2022-10-26T03:20:15;10.30;99.90
13652;DHT22;6899;51.546;6.912;2022-10-26T03:22:41;10.30;99.90
13652;DHT22;6899;51.546;6.912;2022-10-26T03:25:08;10.40;99.90
13652;DHT22;6899;51.546;6.912;2022-10-26T03:27:35;10.40;99.90
13652;DHT22;6899;51.546;6.912;2022-10-26T03:30:03;10.40;99.90
13652;DHT22;6899;51.546;6.912;2022-10-26T03:32:30;10.40;99.90
13652;DHT22;6899;51.546;6.912;2022-10-26T03:34:57;10.40;99.90
13652;DHT22;6899;51.546;6.912;2022-10-26T03:37:25;10.50;99.90
13652;DHT22;6899;51.546;6.912;2022-10-26T03:39:52;10.40;99.90
13652;DHT22;6899;51.546;6.912;2022-10-26T03:42:20;10.40;99.90
13652;DHT22;6899;51.546;6.912;2022-10-26T03:44:47;10.40;99.90
13652;DHT22;6899;51.546;6.912;2022-10-26T03:47:13;10.30;99.90
13652;DHT22;6899;51.546;6.912;2022-10-26T03:49:40;10.30;99.90
13652;DHT22;6899;51.546;6.912;2022-10-26T03:52:07;10.30;99.90
13652;DHT22;6899;51.546;6.912;2022-10-26T03:54:35;10.30;99.90
13652;DHT22;6899;51.546;6.912;2022-10-26T03:57:02;10.30;99.90
13652;DHT22;6899;51.546;6.912;2022-10-26T03:59:29;10.30;99.90
13652;DHT22;6899;51.546;6.912;2022-10-26T04:01:55;10.30;99.90
13652;DHT22;6899;51.546;6.912;2022-10-26T04:04:22;10.30;99.90
13652;DHT22;6899;51.546;6.912;2022-10-26T04:06:49;10.30;99.90
13652;DHT22;6899;51.546;6.912;2022-10-26T04:09:16;10.30;99.90
13652;DHT22;6899;51.546;6.912;2022-10-26T04:11:44;10.40;99.90
13652;DHT22;6899;51.546;6.912;2022-10-26T04:14:11;10.40;99.90
13652;DHT22;6899;51.546;6.912;2022-10-26T04:16:38;10.40;99.90
13652;DHT22;6899;51.546;6.912;2022-10-26T04:19:05;10.40;99.90
13652;DHT22;6899;51.546;6.912;2022-10-26T04:21:32;10.40;99.90
13652;DHT22;6899;51.546;6.912;2022-10-26T04:24:00;10.40;99.90
13652;DHT22;6899;51.546;6.912;2022-10-26T04:26:27;10.40;99.90
13652;DHT22;6899;51.546;6.912;2022-10-26T04:28:55;10.30;99.90
13652;DHT22;6899;51.546;6.912;2022-10-26T04:31:22;10.20;99.90
13652;DHT22;6899;51.546;6.912;2022-10-26T04:33:48;10.10;99.90
13652;DHT22;6899;51.546;6.912;2022-10-26T04:36:15;10.10;99.90
13652;DHT22;6899;51.546;6.912;2022-10-26T04:38:42;10.00;99.90
13652;DHT22;6899;51.546;6.912;2022-10-26T04:41:09;9.90;99.90
13652;DHT22;6899;51.546;6.912;2022-10-26T04:43:36;9.90;99.90
13652;DHT22;6899;51.546;6.912;2022-10-26T04:46:04;9.90;99.90
13652;DHT22;6899;51.546;6.912;2022-10-26T04:48:31;9.90;99.90
13652;DHT22;6899;51.546;6.912;2022-10-26T04:50:58;10.00;99.90
13652;DHT22;6899;51.546;6.912;2022-10-26T04:53:26;10.00;99.90
13652;DHT22;6899;51.546;6.912;2022-10-26T04:55:55;10.10;99.90
13652;DHT22;6899;51.546;6.912;2022-10-26T04:58:22;10.10;99.90
13652;DHT22;6899;51.546;6.912;2022-10-26T05:00:49;10.20;99.90
13652;DHT22;6899;51.546;6.912;2022-10-26T05:03:17;10.30;99.90
13652;DHT22;6899;51.546;6.912;2022-10-26T05:05:44;10.40;99.90
13652;DHT22;6899;51.546;6.912;2022-10-26T05:08:12;10.40;99.90
13652;DHT22;6899;51.546;6.912;2022-10-26T05:10:39;10.50;99.90
13652;DHT22;6899;51.546;6.912;2022-10-26T05:13:07;10.60;99.90
13652;DHT22;6899;51.546;6.912;2022-10-26T05:15:34;10.60;99.90
13652;DHT22;6899;51.546;6.912;2022-10-26T05:18:03;10.60;99.90
13652;DHT22;6899;51.546;6.912;2022-10-26T05:20:33;10.70;99.90
13652;DHT22;6899;51.546;6.912;2022-10-26T05:23:01;10.70;99.90
13652;DHT22;6899;51.546;6.912;2022-10-26T05:25:35;10.70;99.90
13652;DHT22;6899;51.546;6.912;2022-10-26T05:28:04;10.80;99.90
13652;DHT22;6899;51.546;6.912;2022-10-26T05:30:32;10.80;99.90
13652;DHT22;6899;51.546;6.912;2022-10-26T05:33:00;10.80;99.90
13652;DHT22;6899;51.546;6.912;2022-10-26T05:35:28;10.80;99.90
13652;DHT22;6899;51.546;6.912;2022-10-26T05:37:57;10.80;99.90
13652;DHT22;6899;51.546;6.912;2022-10-26T05:40:24;10.80;99.90
13652;DHT22;6899;51.546;6.912;2022-10-26T05:42:51;10.80;99.90
13652;DHT22;6899;51.546;6.912;2022-10-26T05:45:18;10.80;99.90
13652;DHT22;6899;51.546;6.912;2022-10-26T05:47:45;10.90;99.90
13652;DHT22;6899;51.546;6.912;2022-10-26T05:50:12;10.90;99.90
13652;DHT22;6899;51.546;6.912;2022-10-26T05:52:39;10.80;99.90
13652;DHT22;6899;51.546;6.912;2022-10-26T05:55:10;10.80;99.90
13652;DHT22;6899;51.546;6.912;2022-10-26T05:57:38;10.80;99.90
13652;DHT22;6899;51.546;6.912;2022-10-26T06:00:07;10.80;99.90
13652;DHT22;6899;51.546;6.912;2022-10-26T06:02:39;10.80;99.90
13652;DHT22;6899;51.546;6.912;2022-10-26T06:05:09;10.80;99.90
13652;DHT22;6899;51.546;6.912;2022-10-26T06:07:37;10.80;99.90
13652;DHT22;6899;51.546;6.912;2022-10-26T06:10:05;10.80;99.90
13652;DHT22;6899;51.546;6.912;2022-10-26T06:12:34;10.80;99.90
13652;DHT22;6899;51.546;6.912;2022-10-26T06:15:01;10.70;99.90
13652;DHT22;6899;51.546;6.912;2022-10-26T06:17:40;10.70;99.90
13652;DHT22;6899;51.546;6.912;2022-10-26T06:20:20;10.70;99.90
13652;DHT22;6899;51.546;6.912;2022-10-26T06:23:01;10.80;99.90
13652;DHT22;6899;51.546;6.912;2022-10-26T06:25:38;10.80;99.90
13652;DHT22;6899;51.546;6.912;2022-10-26T06:28:19;10.80;99.90
13652;DHT22;6899;51.546;6.912;2022-10-26T06:30:48;10.80;99.90
13652;DHT22;6899;51.546;6.912;2022-10-26T06:33:15;10.80;99.90
13652;DHT22;6899;51.546;6.912;2022-10-26T06:35:50;10.80;99.90
13652;DHT22;6899;51.546;6.912;2022-10-26T06:38:22;10.80;99.90
13652;DHT22;6899;51.546;6.912;2022-10-26T06:40:54;10.90;99.90
13652;DHT22;6899;51.546;6.912;2022-10-26T06:43:25;10.90;99.90
13652;DHT22;6899;51.546;6.912;2022-10-26T06:46:04;10.90;99.90
13652;DHT22;6899;51.546;6.912;2022-10-26T06:48:43;10.90;99.90
13652;DHT22;6899;51.546;6.912;2022-10-26T06:51:14;11.00;99.90
13652;DHT22;6899;51.546;6.912;2022-10-26T06:53:45;11.10;99.90
13652;DHT22;6899;51.546;6.912;2022-10-26T06:56:16;11.20;99.90
13652;DHT22;6899;51.546;6.912;2022-10-26T06:58:45;11.30;99.90
13652;DHT22;6899;51.546;6.912;2022-10-26T07:01:14;11.30;99.90
13652;DHT22;6899;51.546;6.912;2022-10-26T07:03:41;11.40;99.90
13652;DHT22;6899;51.546;6.912;2022-10-26T07:06:08;11.50;99.90
13652;DHT22;6899;51.546;6.912;2022-10-26T07:08:35;11.60;99.90
13652;DHT22;6899;51.546;6.912;2022-10-26T07:11:01;11.70;99.90
13652;DHT22;6899;51.546;6.912;2022-10-26T07:13:29;11.80;99.90
13652;DHT22;6899;51.546;6.912;2022-10-26T07:15:57;12.00;99.90
13652;DHT22;6899;51.546;6.912;2022-10-26T07:18:24;12.10;99.90
13652;DHT22;6899;51.546;6.912;2022-10-26T07:20:51;12.20;99.90
13652;DHT22;6899;51.546;6.912;2022-10-26T07:23:18;12.30;99.90
13652;DHT22;6899;51.546;6.912;2022-10-26T07:25:45;12.30;99.90
13652;DHT22;6899;51.546;6.912;2022-10-26T07:28:11;12.40;99.90
13652;DHT22;6899;51.546;6.912;2022-10-26T07:30:39;12.50;99.90
13652;DHT22;6899;51.546;6.912;2022-10-26T07:33:09;12.50;99.90
13652;DHT22;6899;51.546;6.912;2022-10-26T07:35:37;12.70;99.90
13652;DHT22;6899;51.546;6.912;2022-10-26T07:38:04;12.90;99.90
13652;DHT22;6899;51.546;6.912;2022-10-26T07:40:32;13.10;99.90
13652;DHT22;6899;51.546;6.912;2022-10-26T07:43:00;13.20;99.90
13652;DHT22;6899;51.546;6.912;2022-10-26T07:45:27;13.30;99.90
13652;DHT22;6899;51.546;6.912;2022-10-26T07:47:55;13.30;99.90
13652;DHT22;6899;51.546;6.912;2022-10-26T07:50:23;13.30;99.90
13652;DHT22;6899;51.546;6.912;2022-10-26T07:52:50;13.50;99.90
13652;DHT22;6899;51.546;6.912;2022-10-26T07:55:17;13.80;99.90
13652;DHT22;6899;51.546;6.912;2022-10-26T07:57:44;14.20;99.90
13652;DHT22;6899;51.546;6.912;2022-10-26T08:00:12;14.40;99.90
13652;DHT22;6899;51.546;6.912;2022-10-26T08:02:39;14.40;99.90
13652;DHT22;6899;51.546;6.912;2022-10-26T08:05:07;14.90;99.90
13652;DHT22;6899;51.546;6.912;2022-10-26T08:07:40;14.70;99.90
13652;DHT22;6899;51.546;6.912;2022-10-26T08:10:09;14.60;99.90
13652;DHT22;6899;51.546;6.912;2022-10-26T08:12:35;14.80;99.90
13652;DHT22;6899;51.546;6.912;2022-10-26T08:15:03;14.80;99.90
13652;DHT22;6899;51.546;6.912;2022-10-26T08:17:30;14.70;99.90
13652;DHT22;6899;51.546;6.912;2022-10-26T08:19:57;15.00;99.90
13652;DHT22;6899;51.546;6.912;2022-10-26T08:22:24;14.80;99.90
13652;DHT22;6899;51.546;6.912;2022-10-26T08:24:52;14.80;99.90
13652;DHT22;6899;51.546;6.912;2022-10-26T08:27:19;14.80;99.90
13652;DHT22;6899;51.546;6.912;2022-10-26T08:29:46;14.90;99.90
13652;DHT22;6899;51.546;6.912;2022-10-26T08:32:12;15.00;99.90
13652;DHT22;6899;51.546;6.912;2022-10-26T08:34:39;15.20;99.90
13652;DHT22;6899;51.546;6.912;2022-10-26T08:37:06;15.30;99.90
13652;DHT22;6899;51.546;6.912;2022-10-26T08:39:33;15.40;99.90
13652;DHT22;6899;51.546;6.912;2022-10-26T08:42:09;15.60;99.90
13652;DHT22;6899;51.546;6.912;2022-10-26T08:44:43;15.80;99.90
13652;DHT22;6899;51.546;6.912;2022-10-26T08:47:16;16.00;99.90
13652;DHT22;6899;51.546;6.912;2022-10-26T08:49:49;16.00;99.90
13652;DHT22;6899;51.546;6.912;2022-10-26T08:52:22;16.30;99.90
13652;DHT22;6899;51.546;6.912;2022-10-26T08:54:53;16.30;99.90
13652;DHT22;6899;51.546;6.912;2022-10-26T08:57:25;16.30;99.90
13652;DHT22;6899;51.546;6.912;2022-10-26T08:59:56;16.40;99.90
13652;DHT22;6899;51.546;6.912;2022-10-26T09:02:24;16.30;99.90
13652;DHT22;6899;51.546;6.912;2022-10-26T09:04:52;16.50;99.90
13652;DHT22;6899;51.546;6.912;2022-10-26T09:07:37;16.50;99.90
13652;DHT22;6899;51.546;6.912;2022-10-26T09:10:16;16.60;99.90
13652;DHT22;6899;51.546;6.912;2022-10-26T09:12:53;16.80;99.90
13652;DHT22;6899;51.546;6.912;2022-10-26T09:15:30;16.80;99.90
13652;DHT22;6899;51.546;6.912;2022-10-26T09:18:08;17.00;99.90
13652;DHT22;6899;51.546;6.912;2022-10-26T09:20:51;17.10;99.90
13652;DHT22;6899;51.546;6.912;2022-10-26T09:23:32;17.00;99.90
13652;DHT22;6899;51.546;6.912;2022-10-26T09:26:01;16.90;99.90
13652;DHT22;6899;51.546;6.912;2022-10-26T09:28:33;16.80;99.90
13652;DHT22;6899;51.546;6.912;2022-10-26T09:31:02;16.90;99.90
13652;DHT22;6899;51.546;6.912;2022-10-26T09:33:30;16.90;99.90
13652;DHT22;6899;51.546;6.912;2022-10-26T09:36:02;17.10;99.90
13652;DHT22;6899;51.546;6.912;2022-10-26T09:38:30;17.30;99.90
13652;DHT22;6899;51.546;6.912;2022-10-26T09:41:04;17.40;99.90
13652;DHT22;6899;51.546;6.912;2022-10-26T09:43:39;17.60;99.90
13652;DHT22;6899;51.546;6.912;2022-10-26T09:46:09;17.90;99.90
13652;DHT22;6899;51.546;6.912;2022-10-26T09:48:41;18.20;99.90
13652;DHT22;6899;51.546;6.912;2022-10-26T09:51:10;18.50;99.90
13652;DHT22;6899;51.546;6.912;2022-10-26T09:53:37;18.50;99.90
13652;DHT22;6899;51.546;6.912;2022-10-26T09:56:06;18.60;99.90
13652;DHT22;6899;51.546;6.912;2022-10-26T09:58:39;18.60;99.90
13652;DHT22;6899;51.546;6.912;2022-10-26T10:01:06;18.60;99.90
13652;DHT22;6899;51.546;6.912;2022-10-26T10:03:45;18.50;99.90
13652;DHT22;6899;51.546;6.912;2022-10-26T10:06:17;18.60;99.90
13652;DHT22;6899;51.546;6.912;2022-10-26T10:09:04;18.40;99.90
13652;DHT22;6899;51.546;6.912;2022-10-26T10:11:36;18.00;99.90
13652;DHT22;6899;51.546;6.912;2022-10-26T10:14:07;18.00;99.90
13652;DHT22;6899;51.546;6.912;2022-10-26T10:16:34;18.00;99.90
13652;DHT22;6899;51.546;6.912;2022-10-26T10:19:01;18.20;99.90
13652;DHT22;6899;51.546;6.912;2022-10-26T10:21:34;18.40;99.90
13652;DHT22;6899;51.546;6.912;2022-10-26T10:24:01;18.50;99.90
13652;DHT22;6899;51.546;6.912;2022-10-26T10:26:30;18.60;99.90
13652;DHT22;6899;51.546;6.912;2022-10-26T10:28:59;18.60;99.90
13652;DHT22;6899;51.546;6.912;2022-10-26T10:31:30;18.70;99.90
13652;DHT22;6899;51.546;6.912;2022-10-26T10:33:58;18.70;99.90
13652;DHT22;6899;51.546;6.912;2022-10-26T10:36:27;18.80;99.90
13652;DHT22;6899;51.546;6.912;2022-10-26T10:38:55;18.80;99.90
13652;DHT22;6899;51.546;6.912;2022-10-26T10:41:25;18.90;99.90
13652;DHT22;6899;51.546;6.912;2022-10-26T10:43:55;19.00;99.90
13652;DHT22;6899;51.546;6.912;2022-10-26T10:46:25;19.10;99.90
13652;DHT22;6899;51.546;6.912;2022-10-26T10:49:03;19.20;99.90
13652;DHT22;6899;51.546;6.912;2022-10-26T10:51:35;19.20;99.90
13652;DHT22;6899;51.546;6.912;2022-10-26T10:54:04;19.30;99.90
13652;DHT22;6899;51.546;6.912;2022-10-26T10:56:39;19.30;99.90
13652;DHT22;6899;51.546;6.912;2022-10-26T10:59:39;19.40;99.90
13652;DHT22;6899;51.546;6.912;2022-10-26T11:02:24;19.50;99.90
13652;DHT22;6899;51.546;6.912;2022-10-26T11:05:06;19.70;99.90
13652;DHT22;6899;51.546;6.912;2022-10-26T11:07:45;19.70;99.90
13652;DHT22;6899;51.546;6.912;2022-10-26T11:10:15;19.80;99.90
13652;DHT22;6899;51.546;6.912;2022-10-26T11:12:47;19.90;99.90
13652;DHT22;6899;51.546;6.912;2022-10-26T11:15:17;20.00;99.90
13652;DHT22;6899;51.546;6.912;2022-10-26T11:17:51;20.00;99.90
13652;DHT22;6899;51.546;6.912;2022-10-26T11:20:22;20.10;99.90
13652;DHT22;6899;51.546;6.912;2022-10-26T11:23:00;20.20;99.90
13652;DHT22;6899;51.546;6.912;2022-10-26T11:25:32;20.10;99.90
13652;DHT22;6899;51.546;6.912;2022-10-26T11:28:01;20.00;99.90
13652;DHT22;6899;51.546;6.912;2022-10-26T11:30:33;20.20;99.90
13652;DHT22;6899;51.546;6.912;2022-10-26T11:33:03;20.10;99.90
13652;DHT22;6899;51.546;6.912;2022-10-26T11:35:39;20.20;99.90
13652;DHT22;6899;51.546;6.912;2022-10-26T11:38:13;20.30;99.90
13652;DHT22;6899;51.546;6.912;2022-10-26T11:40:44;20.30;99.90
13652;DHT22;6899;51.546;6.912;2022-10-26T11:43:20;20.20;99.90
13652;DHT22;6899;51.546;6.912;2022-10-26T11:45:58;20.10;99.90
13652;DHT22;6899;51.546;6.912;2022-10-26T11:48:33;20.20;99.90
13652;DHT22;6899;51.546;6.912;2022-10-26T11:51:03;20.20;99.90
13652;DHT22;6899;51.546;6.912;2022-10-26T11:53:34;20.10;99.90
13652;DHT22;6899;51.546;6.912;2022-10-26T11:56:02;20.30;99.90
13652;DHT22;6899;51.546;6.912;2022-10-26T11:58:31;20.30;99.90
13652;DHT22;6899;51.546;6.912;2022-10-26T12:01:01;20.40;99.90
13652;DHT22;6899;51.546;6.912;2022-10-26T12:03:32;20.30;99.90
13652;DHT22;6899;51.546;6.912;2022-10-26T12:06:00;20.40;99.90
13652;DHT22;6899;51.546;6.912;2022-10-26T12:08:31;20.50;99.90
13652;DHT22;6899;51.546;6.912;2022-10-26T12:11:04;20.40;99.90
13652;DHT22;6899;51.546;6.912;2022-10-26T12:13:35;20.30;99.90
13652;DHT22;6899;51.546;6.912;2022-10-26T12:16:08;20.30;99.90
13652;DHT22;6899;51.546;6.912;2022-10-26T12:18:41;20.30;99.90
13652;DHT22;6899;51.546;6.912;2022-10-26T12:21:10;20.40;99.90
13652;DHT22;6899;51.546;6.912;2022-10-26T12:23:54;20.40;99.90
13652;DHT22;6899;51.546;6.912;2022-10-26T12:26:55;20.30;99.90
13652;DHT22;6899;51.546;6.912;2022-10-26T12:29:47;20.20;99.90
13652;DHT22;6899;51.546;6.912;2022-10-26T12:35:44;20.50;99.90
13652;DHT22;6899;51.546;6.912;2022-10-26T12:41:23;20.70;99.90
13652;DHT22;6899;51.546;6.912;2022-10-26T12:44:00;20.70;99.90
13652;DHT22;6899;51.546;6.912;2022-10-26T12:46:38;20.60;99.90
13652;DHT22;6899;51.546;6.912;2022-10-26T12:52:39;20.40;99.90
13652;DHT22;6899;51.546;6.912;2022-10-26T12:55:33;20.40;99.90
13652;DHT22;6899;51.546;6.912;2022-10-26T13:04:50;20.20;99.90
13652;DHT22;6899;51.546;6.912;2022-10-26T13:07:24;20.10;99.90
13652;DHT22;6899;51.546;6.912;2022-10-26T13:09:59;19.90;99.90
13652;DHT22;6899;51.546;6.912;2022-10-26T13:12:28;20.00;99.90
13652;DHT22;6899;51.546;6.912;2022-10-26T13:15:03;20.20;99.90
13652;DHT22;6899;51.546;6.912;2022-10-26T13:17:33;20.30;99.90
13652;DHT22;6899;51.546;6.912;2022-10-26T13:20:02;20.30;99.90
13652;DHT22;6899;51.546;6.912;2022-10-26T13:22:30;20.30;99.90
13652;DHT22;6899;51.546;6.912;2022-10-26T13:24:59;20.30;99.90
13652;DHT22;6899;51.546;6.912;2022-10-26T13:27:40;20.20;99.90
13652;DHT22;6899;51.546;6.912;2022-10-26T13:30:34;20.10;99.90
13652;DHT22;6899;51.546;6.912;2022-10-26T13:33:09;20.10;99.90
13652;DHT22;6899;51.546;6.912;2022-10-26T13:35:39;20.00;99.90
13652;DHT22;6899;51.546;6.912;2022-10-26T13:38:10;19.90;99.90
13652;DHT22;6899;51.546;6.912;2022-10-26T13:40:38;20.00;99.90
13652;DHT22;6899;51.546;6.912;2022-10-26T13:43:10;20.10;99.90
13652;DHT22;6899;51.546;6.912;2022-10-26T13:45:53;20.10;99.90
13652;DHT22;6899;51.546;6.912;2022-10-26T13:48:30;20.10;99.90
13652;DHT22;6899;51.546;6.912;2022-10-26T13:51:01;20.20;99.90
13652;DHT22;6899;51.546;6.912;2022-10-26T13:53:38;20.20;99.90
13652;DHT22;6899;51.546;6.912;2022-10-26T13:56:12;20.20;99.90
13652;DHT22;6899;51.546;6.912;2022-10-26T13:58:43;20.10;99.90
13652;DHT22;6899;51.546;6.912;2022-10-26T14:01:17;20.00;99.90
13652;DHT22;6899;51.546;6.912;2022-10-26T14:03:47;20.00;99.90
13652;DHT22;6899;51.546;6.912;2022-10-26T14:06:18;20.10;99.90
13652;DHT22;6899;51.546;6.912;2022-10-26T14:08:46;20.20;99.90
13652;DHT22;6899;51.546;6.912;2022-10-26T14:11:17;20.20;99.90
13652;DHT22;6899;51.546;6.912;2022-10-26T14:13:45;20.20;99.90
13652;DHT22;6899;51.546;6.912;2022-10-26T14:16:16;20.30;99.90
13652;DHT22;6899;51.546;6.912;2022-10-26T14:18:46;20.20;99.90
13652;DHT22;6899;51.546;6.912;2022-10-26T14:21:17;20.10;99.90
13652;DHT22;6899;51.546;6.912;2022-10-26T14:23:47;20.10;99.90
13652;DHT22;6899;51.546;6.912;2022-10-26T14:26:22;20.00;99.90
13652;DHT22;6899;51.546;6.912;2022-10-26T14:28:51;19.90;99.90
13652;DHT22;6899;51.546;6.912;2022-10-26T14:31:22;19.80;99.90
13652;DHT22;6899;51.546;6.912;2022-10-26T14:33:50;19.80;99.90
13652;DHT22;6899;51.546;6.912;2022-10-26T14:36:19;19.90;99.90
13652;DHT22;6899;51.546;6.912;2022-10-26T14:38:50;19.90;99.90
13652;DHT22;6899;51.546;6.912;2022-10-26T14:41:20;19.90;99.90
13652;DHT22;6899;51.546;6.912;2022-10-26T14:43:48;19.80;99.90
13652;DHT22;6899;51.546;6.912;2022-10-26T14:46:16;19.70;99.90
13652;DHT22;6899;51.546;6.912;2022-10-26T14:48:52;19.60;99.90
13652;DHT22;6899;51.546;6.912;2022-10-26T14:51:26;19.50;99.90
13652;DHT22;6899;51.546;6.912;2022-10-26T14:53:55;19.40;99.90
13652;DHT22;6899;51.546;6.912;2022-10-26T14:56:26;19.30;99.90
13652;DHT22;6899;51.546;6.912;2022-10-26T14:58:55;19.20;99.90
13652;DHT22;6899;51.546;6.912;2022-10-26T15:01:30;19.10;99.90
13652;DHT22;6899;51.546;6.912;2022-10-26T15:04:01;19.00;99.90
13652;DHT22;6899;51.546;6.912;2022-10-26T15:06:40;18.90;99.90
13652;DHT22;6899;51.546;6.912;2022-10-26T15:09:28;18.80;99.90
13652;DHT22;6899;51.546;6.912;2022-10-26T15:11:55;18.70;99.90
13652;DHT22;6899;51.546;6.912;2022-10-26T15:14:22;18.60;99.90
13652;DHT22;6899;51.546;6.912;2022-10-26T15:16:52;18.50;99.90
13652;DHT22;6899;51.546;6.912;2022-10-26T15:19:21;18.40;99.90
13652;DHT22;6899;51.546;6.912;2022-10-26T15:21:50;18.30;99.90
13652;DHT22;6899;51.546;6.912;2022-10-26T15:24:28;18.20;99.90
13652;DHT22;6899;51.546;6.912;2022-10-26T15:26:57;18.10;99.90
13652;DHT22;6899;51.546;6.912;2022-10-26T15:29:35;18.00;99.90
13652;DHT22;6899;51.546;6.912;2022-10-26T15:32:03;17.80;99.90
13652;DHT22;6899;51.546;6.912;2022-10-26T15:34:31;17.70;99.90
13652;DHT22;6899;51.546;6.912;2022-10-26T15:36:58;17.60;99.90
13652;DHT22;6899;51.546;6.912;2022-10-26T15:39:25;17.60;99.90
13652;DHT22;6899;51.546;6.912;2022-10-26T15:41:52;17.40;99.90
13652;DHT22;6899;51.546;6.912;2022-10-26T15:44:21;17.30;99.90
13652;DHT22;6899;51.546;6.912;2022-10-26T15:46:50;17.20;99.90
13652;DHT22;6899;51.546;6.912;2022-10-26T15:49:19;17.10;99.90
13652;DHT22;6899;51.546;6.912;2022-10-26T15:51:48;16.90;99.90
13652;DHT22;6899;51.546;6.912;2022-10-26T15:54:15;16.80;99.90
13652;DHT22;6899;51.546;6.912;2022-10-26T15:56:42;16.60;99.90
13652;DHT22;6899;51.546;6.912;2022-10-26T15:59:17;16.50;99.90
13652;DHT22;6899;51.546;6.912;2022-10-26T16:01:44;16.40;99.90
13652;DHT22;6899;51.546;6.912;2022-10-26T16:04:11;16.30;99.90
13652;DHT22;6899;51.546;6.912;2022-10-26T16:06:39;16.10;99.90
13652;DHT22;6899;51.546;6.912;2022-10-26T16:09:11;16.00;99.90
13652;DHT22;6899;51.546;6.912;2022-10-26T16:11:39;15.90;99.90
13652;DHT22;6899;51.546;6.912;2022-10-26T16:14:07;15.80;99.90
13652;DHT22;6899;51.546;6.912;2022-10-26T16:16:34;15.80;99.90
13652;DHT22;6899;51.546;6.912;2022-10-26T16:19:01;15.70;99.90
13652;DHT22;6899;51.546;6.912;2022-10-26T16:21:28;15.60;99.90
13652;DHT22;6899;51.546;6.912;2022-10-26T16:23:55;15.60;99.90
13652;DHT22;6899;51.546;6.912;2022-10-26T16:26:24;15.50;99.90
13652;DHT22;6899;51.546;6.912;2022-10-26T16:28:51;15.40;99.90
13652;DHT22;6899;51.546;6.912;2022-10-26T16:31:19;15.30;99.90
13652;DHT22;6899;51.546;6.912;2022-10-26T16:33:46;15.30;99.90
13652;DHT22;6899;51.546;6.912;2022-10-26T16:36:14;15.30;99.90